Gobernador Costa, Argentina
Current Conditions -  °F | °C
As of 1:00 AM on Monday 22 Dec 2014 (Local Time) from SCAP Reporting Station
Clear Clear  
Wind Chill: 44°   Ceiling: Unl
Heat Index: 46°   Visibility: NA
Dew Point: 36°   Wind: 5mph
Humidity: 66%   Direction: NA
Pressure: 30.39"   Gusts: NA
Location:  44.07°S, 70.58°W
Report Text: SCAP 220400Z AUTO VRB04KT //// // NSC 08/02 Q1029
Loading
Personal Weather Stations






























Interactive Weather Map New forecast layout! Learn more

10-Day Weather Forecast

Advertisements
Track Severe Weather on mobile